sensor_id;sensor_type;location;lat;lon;timestamp;P1;durP1;ratioP1;P2;durP2;ratioP2
22679;SDS011;11507;44.858;10.374;2022-07-10T00:00:05;4.63;;;2.30;;
22679;SDS011;11507;44.858;10.374;2022-07-10T00:02:41;6.00;;;2.88;;
22679;SDS011;11507;44.858;10.374;2022-07-10T00:05:08;6.38;;;2.60;;
22679;SDS011;11507;44.858;10.374;2022-07-10T00:07:35;4.40;;;2.50;;
22679;SDS011;11507;44.858;10.374;2022-07-10T00:10:02;4.53;;;2.42;;
22679;SDS011;11507;44.858;10.374;2022-07-10T00:12:29;6.70;;;2.72;;
22679;SDS011;11507;44.858;10.374;2022-07-10T00:14:55;4.88;;;2.95;;
22679;SDS011;11507;44.858;10.374;2022-07-10T00:17:21;6.85;;;2.63;;
22679;SDS011;11507;44.858;10.374;2022-07-10T00:19:47;5.75;;;2.30;;
22679;SDS011;11507;44.858;10.374;2022-07-10T00:22:13;3.65;;;2.30;;
22679;SDS011;11507;44.858;10.374;2022-07-10T00:24:39;5.22;;;2.50;;
22679;SDS011;11507;44.858;10.374;2022-07-10T00:27:05;5.97;;;3.00;;
22679;SDS011;11507;44.858;10.374;2022-07-10T00:29:31;4.72;;;2.53;;
22679;SDS011;11507;44.858;10.374;2022-07-10T00:31:58;5.28;;;2.50;;
22679;SDS011;11507;44.858;10.374;2022-07-10T00:34:25;6.30;;;3.25;;
22679;SDS011;11507;44.858;10.374;2022-07-10T00:36:51;7.15;;;3.03;;
22679;SDS011;11507;44.858;10.374;2022-07-10T00:39:17;6.28;;;2.75;;
22679;SDS011;11507;44.858;10.374;2022-07-10T00:41:43;8.57;;;2.65;;
22679;SDS011;11507;44.858;10.374;2022-07-10T00:44:10;4.95;;;2.88;;
22679;SDS011;11507;44.858;10.374;2022-07-10T00:46:36;5.07;;;3.10;;
22679;SDS011;11507;44.858;10.374;2022-07-10T00:49:03;8.45;;;3.35;;
22679;SDS011;11507;44.858;10.374;2022-07-10T00:51:30;7.38;;;3.88;;
22679;SDS011;11507;44.858;10.374;2022-07-10T00:53:59;8.00;;;3.60;;
22679;SDS011;11507;44.858;10.374;2022-07-10T00:56:26;5.53;;;3.17;;
22679;SDS011;11507;44.858;10.374;2022-07-10T00:58:53;6.50;;;3.47;;
22679;SDS011;11507;44.858;10.374;2022-07-10T01:01:20;7.20;;;3.72;;
22679;SDS011;11507;44.858;10.374;2022-07-10T01:03:47;8.38;;;3.35;;
22679;SDS011;11507;44.858;10.374;2022-07-10T01:06:14;6.63;;;2.88;;
22679;SDS011;11507;44.858;10.374;2022-07-10T01:08:48;4.53;;;2.90;;
22679;SDS011;11507;44.858;10.374;2022-07-10T01:11:15;7.90;;;3.38;;
22679;SDS011;11507;44.858;10.374;2022-07-10T01:13:41;7.07;;;3.67;;
22679;SDS011;11507;44.858;10.374;2022-07-10T01:16:10;5.80;;;3.42;;
22679;SDS011;11507;44.858;10.374;2022-07-10T01:18:37;6.38;;;3.63;;
22679;SDS011;11507;44.858;10.374;2022-07-10T01:21:03;6.90;;;4.72;;
22679;SDS011;11507;44.858;10.374;2022-07-10T01:23:29;10.40;;;4.65;;
22679;SDS011;11507;44.858;10.374;2022-07-10T01:25:54;6.28;;;3.65;;
22679;SDS011;11507;44.858;10.374;2022-07-10T01:28:20;7.13;;;4.20;;
22679;SDS011;11507;44.858;10.374;2022-07-10T01:30:48;8.75;;;4.80;;
22679;SDS011;11507;44.858;10.374;2022-07-10T01:33:15;7.55;;;4.07;;
22679;SDS011;11507;44.858;10.374;2022-07-10T01:35:41;6.82;;;3.88;;
22679;SDS011;11507;44.858;10.374;2022-07-10T01:38:08;9.73;;;4.63;;
22679;SDS011;11507;44.858;10.374;2022-07-10T01:40:33;5.53;;;3.83;;
22679;SDS011;11507;44.858;10.374;2022-07-10T01:42:59;7.25;;;4.30;;
22679;SDS011;11507;44.858;10.374;2022-07-10T01:45:25;5.35;;;3.70;;
22679;SDS011;11507;44.858;10.374;2022-07-10T01:47:52;9.25;;;4.88;;
22679;SDS011;11507;44.858;10.374;2022-07-10T01:50:17;5.95;;;4.05;;
22679;SDS011;11507;44.858;10.374;2022-07-10T01:52:44;8.80;;;4.32;;
22679;SDS011;11507;44.858;10.374;2022-07-10T01:55:10;8.82;;;4.43;;
22679;SDS011;11507;44.858;10.374;2022-07-10T01:57:36;7.80;;;4.38;;
22679;SDS011;11507;44.858;10.374;2022-07-10T02:00:04;6.88;;;5.20;;
22679;SDS011;11507;44.858;10.374;2022-07-10T02:02:37;8.52;;;5.28;;
22679;SDS011;11507;44.858;10.374;2022-07-10T02:05:03;7.53;;;5.38;;
22679;SDS011;11507;44.858;10.374;2022-07-10T02:07:29;7.25;;;5.15;;
22679;SDS011;11507;44.858;10.374;2022-07-10T02:09:55;8.32;;;5.70;;
22679;SDS011;11507;44.858;10.374;2022-07-10T02:12:21;8.38;;;5.07;;
22679;SDS011;11507;44.858;10.374;2022-07-10T02:14:46;8.15;;;5.30;;
22679;SDS011;11507;44.858;10.374;2022-07-10T02:17:12;8.27;;;5.20;;
22679;SDS011;11507;44.858;10.374;2022-07-10T02:19:38;7.68;;;4.88;;
22679;SDS011;11507;44.858;10.374;2022-07-10T02:22:04;6.32;;;4.78;;
22679;SDS011;11507;44.858;10.374;2022-07-10T02:24:30;9.15;;;5.20;;
22679;SDS011;11507;44.858;10.374;2022-07-10T02:26:55;12.35;;;5.13;;
22679;SDS011;11507;44.858;10.374;2022-07-10T02:29:21;8.43;;;5.35;;
22679;SDS011;11507;44.858;10.374;2022-07-10T02:31:50;7.47;;;5.35;;
22679;SDS011;11507;44.858;10.374;2022-07-10T02:34:16;10.57;;;6.22;;
22679;SDS011;11507;44.858;10.374;2022-07-10T02:36:42;10.90;;;5.38;;
22679;SDS011;11507;44.858;10.374;2022-07-10T02:39:08;8.50;;;5.55;;
22679;SDS011;11507;44.858;10.374;2022-07-10T02:41:34;11.55;;;5.65;;
22679;SDS011;11507;44.858;10.374;2022-07-10T02:44:03;8.55;;;5.80;;
22679;SDS011;11507;44.858;10.374;2022-07-10T02:46:29;8.63;;;5.40;;
22679;SDS011;11507;44.858;10.374;2022-07-10T02:48:55;8.52;;;5.43;;
22679;SDS011;11507;44.858;10.374;2022-07-10T02:51:21;13.68;;;5.47;;
22679;SDS011;11507;44.858;10.374;2022-07-10T02:53:47;6.65;;;4.82;;
22679;SDS011;11507;44.858;10.374;2022-07-10T02:56:14;8.10;;;5.15;;
22679;SDS011;11507;44.858;10.374;2022-07-10T02:58:40;7.90;;;5.25;;
22679;SDS011;11507;44.858;10.374;2022-07-10T03:01:06;9.57;;;5.30;;
22679;SDS011;11507;44.858;10.374;2022-07-10T03:03:32;9.70;;;5.88;;
22679;SDS011;11507;44.858;10.374;2022-07-10T03:05:58;10.27;;;6.57;;
22679;SDS011;11507;44.858;10.374;2022-07-10T03:08:24;9.80;;;7.00;;
22679;SDS011;11507;44.858;10.374;2022-07-10T03:13:17;11.50;;;6.13;;
22679;SDS011;11507;44.858;10.374;2022-07-10T03:15:42;11.73;;;6.25;;
22679;SDS011;11507;44.858;10.374;2022-07-10T03:18:08;10.40;;;6.47;;
22679;SDS011;11507;44.858;10.374;2022-07-10T03:20:34;13.07;;;6.93;;
22679;SDS011;11507;44.858;10.374;2022-07-10T03:23:00;10.93;;;7.18;;
22679;SDS011;11507;44.858;10.374;2022-07-10T03:25:27;9.85;;;7.32;;
22679;SDS011;11507;44.858;10.374;2022-07-10T03:27:53;9.98;;;6.35;;
22679;SDS011;11507;44.858;10.374;2022-07-10T03:30:18;7.65;;;5.28;;
22679;SDS011;11507;44.858;10.374;2022-07-10T03:32:45;12.73;;;6.80;;
22679;SDS011;11507;44.858;10.374;2022-07-10T03:35:11;9.93;;;6.00;;
22679;SDS011;11507;44.858;10.374;2022-07-10T03:40:02;9.68;;;6.60;;
22679;SDS011;11507;44.858;10.374;2022-07-10T03:42:29;10.85;;;7.60;;
22679;SDS011;11507;44.858;10.374;2022-07-10T03:44:55;12.40;;;8.02;;
22679;SDS011;11507;44.858;10.374;2022-07-10T03:49:46;11.40;;;8.02;;
22679;SDS011;11507;44.858;10.374;2022-07-10T03:54:38;12.65;;;7.82;;
22679;SDS011;11507;44.858;10.374;2022-07-10T03:57:04;9.48;;;6.90;;
22679;SDS011;11507;44.858;10.374;2022-07-10T03:59:49;11.18;;;7.47;;
22679;SDS011;11507;44.858;10.374;2022-07-10T04:04:40;10.52;;;7.88;;
22679;SDS011;11507;44.858;10.374;2022-07-10T04:07:07;15.80;;;8.50;;
22679;SDS011;11507;44.858;10.374;2022-07-10T04:09:34;18.75;;;8.60;;
22679;SDS011;11507;44.858;10.374;2022-07-10T04:12:00;11.48;;;8.48;;
22679;SDS011;11507;44.858;10.374;2022-07-10T04:16:53;10.00;;;6.15;;
22679;SDS011;11507;44.858;10.374;2022-07-10T04:19:20;10.85;;;6.15;;
22679;SDS011;11507;44.858;10.374;2022-07-10T04:21:47;8.43;;;6.13;;
22679;SDS011;11507;44.858;10.374;2022-07-10T04:24:14;9.32;;;6.25;;
22679;SDS011;11507;44.858;10.374;2022-07-10T04:29:06;10.05;;;6.43;;
22679;SDS011;11507;44.858;10.374;2022-07-10T04:31:33;10.75;;;7.88;;
22679;SDS011;11507;44.858;10.374;2022-07-10T04:33:58;10.75;;;7.65;;
22679;SDS011;11507;44.858;10.374;2022-07-10T04:38:50;12.85;;;7.40;;
22679;SDS011;11507;44.858;10.374;2022-07-10T04:41:17;12.02;;;8.00;;
22679;SDS011;11507;44.858;10.374;2022-07-10T04:43:43;11.85;;;7.85;;
22679;SDS011;11507;44.858;10.374;2022-07-10T04:46:09;11.35;;;8.25;;
22679;SDS011;11507;44.858;10.374;2022-07-10T04:48:34;9.85;;;7.93;;
22679;SDS011;11507;44.858;10.374;2022-07-10T04:51:00;11.88;;;7.93;;
22679;SDS011;11507;44.858;10.374;2022-07-10T04:53:26;12.23;;;7.82;;
22679;SDS011;11507;44.858;10.374;2022-07-10T04:55:52;11.85;;;8.20;;
22679;SDS011;11507;44.858;10.374;2022-07-10T04:58:18;11.25;;;8.10;;
22679;SDS011;11507;44.858;10.374;2022-07-10T05:00:43;11.68;;;7.30;;
22679;SDS011;11507;44.858;10.374;2022-07-10T05:03:09;10.70;;;7.07;;
22679;SDS011;11507;44.858;10.374;2022-07-10T05:05:35;12.10;;;7.13;;
22679;SDS011;11507;44.858;10.374;2022-07-10T05:08:01;8.82;;;6.25;;
22679;SDS011;11507;44.858;10.374;2022-07-10T05:10:27;7.25;;;4.18;;
22679;SDS011;11507;44.858;10.374;2022-07-10T05:12:53;7.82;;;3.63;;
22679;SDS011;11507;44.858;10.374;2022-07-10T05:15:19;8.52;;;3.95;;
22679;SDS011;11507;44.858;10.374;2022-07-10T05:17:45;5.40;;;3.47;;
22679;SDS011;11507;44.858;10.374;2022-07-10T05:20:10;7.60;;;3.65;;
22679;SDS011;11507;44.858;10.374;2022-07-10T05:22:36;7.63;;;3.80;;
22679;SDS011;11507;44.858;10.374;2022-07-10T05:25:02;5.05;;;3.47;;
22679;SDS011;11507;44.858;10.374;2022-07-10T05:27:28;6.32;;;3.50;;
22679;SDS011;11507;44.858;10.374;2022-07-10T05:29:54;5.97;;;3.10;;
22679;SDS011;11507;44.858;10.374;2022-07-10T05:32:20;5.35;;;2.90;;
22679;SDS011;11507;44.858;10.374;2022-07-10T05:34:46;6.22;;;3.10;;
22679;SDS011;11507;44.858;10.374;2022-07-10T05:37:12;8.50;;;2.95;;
22679;SDS011;11507;44.858;10.374;2022-07-10T05:39:38;6.82;;;3.13;;
22679;SDS011;11507;44.858;10.374;2022-07-10T05:42:04;4.50;;;2.90;;
22679;SDS011;11507;44.858;10.374;2022-07-10T05:44:30;6.25;;;3.45;;
22679;SDS011;11507;44.858;10.374;2022-07-10T05:46:56;7.28;;;3.80;;
22679;SDS011;11507;44.858;10.374;2022-07-10T05:49:22;7.28;;;4.00;;
22679;SDS011;11507;44.858;10.374;2022-07-10T05:51:48;7.60;;;4.03;;
22679;SDS011;11507;44.858;10.374;2022-07-10T05:54:14;6.40;;;4.63;;
22679;SDS011;11507;44.858;10.374;2022-07-10T05:56:40;6.45;;;4.18;;
22679;SDS011;11507;44.858;10.374;2022-07-10T05:59:06;9.23;;;4.43;;
22679;SDS011;11507;44.858;10.374;2022-07-10T06:01:31;8.38;;;4.60;;
22679;SDS011;11507;44.858;10.374;2022-07-10T06:03:57;11.43;;;4.72;;
22679;SDS011;11507;44.858;10.374;2022-07-10T06:06:23;8.32;;;4.57;;
22679;SDS011;11507;44.858;10.374;2022-07-10T06:08:49;7.68;;;5.00;;
22679;SDS011;11507;44.858;10.374;2022-07-10T06:11:15;7.18;;;4.80;;
22679;SDS011;11507;44.858;10.374;2022-07-10T06:13:41;10.32;;;4.93;;
22679;SDS011;11507;44.858;10.374;2022-07-10T06:16:07;6.00;;;4.40;;
22679;SDS011;11507;44.858;10.374;2022-07-10T06:18:33;5.72;;;3.90;;
22679;SDS011;11507;44.858;10.374;2022-07-10T06:20:59;6.47;;;4.13;;
22679;SDS011;11507;44.858;10.374;2022-07-10T06:23:24;8.38;;;4.47;;
22679;SDS011;11507;44.858;10.374;2022-07-10T06:25:50;8.02;;;4.50;;
22679;SDS011;11507;44.858;10.374;2022-07-10T06:28:17;11.00;;;4.57;;
22679;SDS011;11507;44.858;10.374;2022-07-10T06:30:43;7.00;;;4.43;;
22679;SDS011;11507;44.858;10.374;2022-07-10T06:33:11;9.18;;;4.60;;
22679;SDS011;11507;44.858;10.374;2022-07-10T06:35:38;9.25;;;4.47;;
22679;SDS011;11507;44.858;10.374;2022-07-10T06:38:04;11.02;;;4.63;;
22679;SDS011;11507;44.858;10.374;2022-07-10T06:40:30;8.50;;;4.95;;
22679;SDS011;11507;44.858;10.374;2022-07-10T06:43:01;7.38;;;4.53;;
22679;SDS011;11507;44.858;10.374;2022-07-10T06:45:27;13.55;;;4.85;;
22679;SDS011;11507;44.858;10.374;2022-07-10T06:47:54;6.03;;;4.70;;
22679;SDS011;11507;44.858;10.374;2022-07-10T06:50:27;10.70;;;5.25;;
22679;SDS011;11507;44.858;10.374;2022-07-10T06:52:58;7.57;;;5.13;;
22679;SDS011;11507;44.858;10.374;2022-07-10T06:55:25;9.13;;;5.22;;
22679;SDS011;11507;44.858;10.374;2022-07-10T06:57:51;8.18;;;5.50;;
22679;SDS011;11507;44.858;10.374;2022-07-10T07:00:18;12.38;;;5.53;;
22679;SDS011;11507;44.858;10.374;2022-07-10T07:02:44;9.85;;;5.57;;
22679;SDS011;11507;44.858;10.374;2022-07-10T07:05:10;7.45;;;5.40;;
22679;SDS011;11507;44.858;10.374;2022-07-10T07:07:37;11.35;;;6.10;;
22679;SDS011;11507;44.858;10.374;2022-07-10T07:10:04;9.40;;;5.43;;
22679;SDS011;11507;44.858;10.374;2022-07-10T07:12:31;10.82;;;5.55;;
22679;SDS011;11507;44.858;10.374;2022-07-10T07:14:57;7.80;;;5.30;;
22679;SDS011;11507;44.858;10.374;2022-07-10T07:17:22;8.00;;;5.72;;
22679;SDS011;11507;44.858;10.374;2022-07-10T07:19:59;10.10;;;5.80;;
22679;SDS011;11507;44.858;10.374;2022-07-10T07:22:45;9.52;;;5.55;;
22679;SDS011;11507;44.858;10.374;2022-07-10T07:25:30;9.35;;;6.20;;
22679;SDS011;11507;44.858;10.374;2022-07-10T07:27:56;8.82;;;5.35;;
22679;SDS011;11507;44.858;10.374;2022-07-10T07:30:22;9.15;;;5.80;;
22679;SDS011;11507;44.858;10.374;2022-07-10T07:32:48;10.13;;;5.00;;
22679;SDS011;11507;44.858;10.374;2022-07-10T07:35:14;9.77;;;5.93;;
22679;SDS011;11507;44.858;10.374;2022-07-10T07:37:42;8.38;;;4.57;;
22679;SDS011;11507;44.858;10.374;2022-07-10T07:40:11;7.50;;;4.60;;
22679;SDS011;11507;44.858;10.374;2022-07-10T07:42:38;7.28;;;4.38;;
22679;SDS011;11507;44.858;10.374;2022-07-10T07:45:06;6.28;;;3.95;;
22679;SDS011;11507;44.858;10.374;2022-07-10T07:47:52;6.45;;;5.13;;
22679;SDS011;11507;44.858;10.374;2022-07-10T07:50:21;9.73;;;4.93;;
22679;SDS011;11507;44.858;10.374;2022-07-10T07:52:51;12.75;;;5.40;;
22679;SDS011;11507;44.858;10.374;2022-07-10T07:55:18;9.25;;;5.10;;
22679;SDS011;11507;44.858;10.374;2022-07-10T07:57:45;7.28;;;4.85;;
22679;SDS011;11507;44.858;10.374;2022-07-10T08:00:12;6.80;;;4.40;;
22679;SDS011;11507;44.858;10.374;2022-07-10T08:02:39;6.45;;;4.10;;
22679;SDS011;11507;44.858;10.374;2022-07-10T08:05:06;6.80;;;3.80;;
22679;SDS011;11507;44.858;10.374;2022-07-10T08:07:33;4.88;;;3.58;;
22679;SDS011;11507;44.858;10.374;2022-07-10T08:10:00;8.00;;;4.00;;
22679;SDS011;11507;44.858;10.374;2022-07-10T08:12:26;7.95;;;3.85;;
22679;SDS011;11507;44.858;10.374;2022-07-10T08:14:52;7.60;;;2.70;;
22679;SDS011;11507;44.858;10.374;2022-07-10T08:17:18;7.72;;;4.13;;
22679;SDS011;11507;44.858;10.374;2022-07-10T08:19:46;7.93;;;2.92;;
22679;SDS011;11507;44.858;10.374;2022-07-10T08:22:13;5.28;;;2.70;;
22679;SDS011;11507;44.858;10.374;2022-07-10T08:24:39;7.47;;;3.00;;
22679;SDS011;11507;44.858;10.374;2022-07-10T08:27:05;6.95;;;2.75;;
22679;SDS011;11507;44.858;10.374;2022-07-10T08:29:32;8.05;;;2.80;;
22679;SDS011;11507;44.858;10.374;2022-07-10T08:31:58;5.45;;;2.50;;
22679;SDS011;11507;44.858;10.374;2022-07-10T08:34:24;8.73;;;2.20;;
22679;SDS011;11507;44.858;10.374;2022-07-10T08:36:51;6.65;;;2.50;;
22679;SDS011;11507;44.858;10.374;2022-07-10T08:39:17;8.68;;;2.45;;
22679;SDS011;11507;44.858;10.374;2022-07-10T08:41:46;4.07;;;2.00;;
22679;SDS011;11507;44.858;10.374;2022-07-10T08:44:15;4.82;;;2.40;;
22679;SDS011;11507;44.858;10.374;2022-07-10T08:46:43;4.65;;;2.38;;
22679;SDS011;11507;44.858;10.374;2022-07-10T08:49:10;5.00;;;1.80;;
22679;SDS011;11507;44.858;10.374;2022-07-10T08:54:20;4.28;;;2.17;;
22679;SDS011;11507;44.858;10.374;2022-07-10T08:56:46;5.95;;;1.70;;
22679;SDS011;11507;44.858;10.374;2022-07-10T08:59:14;5.82;;;2.22;;
22679;SDS011;11507;44.858;10.374;2022-07-10T09:01:40;6.55;;;2.00;;
22679;SDS011;11507;44.858;10.374;2022-07-10T09:04:06;4.00;;;1.95;;
22679;SDS011;11507;44.858;10.374;2022-07-10T09:06:32;4.75;;;2.47;;
22679;SDS011;11507;44.858;10.374;2022-07-10T09:09:04;8.02;;;2.85;;
22679;SDS011;11507;44.858;10.374;2022-07-10T09:11:32;4.85;;;2.50;;
22679;SDS011;11507;44.858;10.374;2022-07-10T09:13:59;4.45;;;2.00;;
22679;SDS011;11507;44.858;10.374;2022-07-10T09:16:29;4.78;;;2.45;;
22679;SDS011;11507;44.858;10.374;2022-07-10T09:19:15;8.60;;;2.40;;
22679;SDS011;11507;44.858;10.374;2022-07-10T09:21:48;6.90;;;2.00;;
22679;SDS011;11507;44.858;10.374;2022-07-10T09:24:15;6.35;;;2.53;;
22679;SDS011;11507;44.858;10.374;2022-07-10T09:26:47;5.10;;;2.10;;
22679;SDS011;11507;44.858;10.374;2022-07-10T09:29:28;3.30;;;1.60;;
22679;SDS011;11507;44.858;10.374;2022-07-10T09:31:59;8.00;;;1.80;;
22679;SDS011;11507;44.858;10.374;2022-07-10T09:37:21;6.72;;;1.80;;
22679;SDS011;11507;44.858;10.374;2022-07-10T09:42:31;4.47;;;1.70;;
22679;SDS011;11507;44.858;10.374;2022-07-10T09:47:43;3.88;;;1.60;;
22679;SDS011;11507;44.858;10.374;2022-07-10T09:50:23;6.32;;;2.13;;
22679;SDS011;11507;44.858;10.374;2022-07-10T09:52:52;6.88;;;1.80;;
22679;SDS011;11507;44.858;10.374;2022-07-10T09:55:20;5.72;;;1.80;;
22679;SDS011;11507;44.858;10.374;2022-07-10T09:57:50;6.78;;;1.85;;
22679;SDS011;11507;44.858;10.374;2022-07-10T10:00:22;3.53;;;1.60;;
22679;SDS011;11507;44.858;10.374;2022-07-10T10:02:56;5.38;;;1.67;;
22679;SDS011;11507;44.858;10.374;2022-07-10T10:05:29;5.13;;;1.50;;
22679;SDS011;11507;44.858;10.374;2022-07-10T10:10:51;3.92;;;1.50;;
22679;SDS011;11507;44.858;10.374;2022-07-10T10:13:21;5.38;;;1.67;;
22679;SDS011;11507;44.858;10.374;2022-07-10T10:15:49;4.35;;;1.77;;
22679;SDS011;11507;44.858;10.374;2022-07-10T10:18:20;3.65;;;1.60;;
22679;SDS011;11507;44.858;10.374;2022-07-10T10:20:49;2.80;;;1.30;;
22679;SDS011;11507;44.858;10.374;2022-07-10T10:23:17;2.90;;;1.20;;
22679;SDS011;11507;44.858;10.374;2022-07-10T10:25:50;3.20;;;1.00;;
22679;SDS011;11507;44.858;10.374;2022-07-10T10:28:19;2.28;;;1.10;;
22679;SDS011;11507;44.858;10.374;2022-07-10T10:30:50;2.70;;;1.40;;
22679;SDS011;11507;44.858;10.374;2022-07-10T10:36:00;1.67;;;1.02;;
22679;SDS011;11507;44.858;10.374;2022-07-10T10:41:26;4.53;;;1.15;;
22679;SDS011;11507;44.858;10.374;2022-07-10T10:46:32;2.47;;;1.08;;
22679;SDS011;11507;44.858;10.374;2022-07-10T10:49:26;3.70;;;1.30;;
22679;SDS011;11507;44.858;10.374;2022-07-10T10:51:58;3.05;;;1.27;;
22679;SDS011;11507;44.858;10.374;2022-07-10T10:54:32;3.08;;;1.05;;
22679;SDS011;11507;44.858;10.374;2022-07-10T10:57:23;3.25;;;1.25;;
22679;SDS011;11507;44.858;10.374;2022-07-10T11:00:09;2.42;;;1.10;;
22679;SDS011;11507;44.858;10.374;2022-07-10T11:02:39;3.00;;;1.20;;
22679;SDS011;11507;44.858;10.374;2022-07-10T11:13:01;3.78;;;1.30;;
22679;SDS011;11507;44.858;10.374;2022-07-10T11:18:17;3.45;;;1.20;;
22679;SDS011;11507;44.858;10.374;2022-07-10T11:21:04;3.05;;;1.20;;
22679;SDS011;11507;44.858;10.374;2022-07-10T11:26:09;2.20;;;1.10;;
22679;SDS011;11507;44.858;10.374;2022-07-10T11:28:54;4.97;;;1.20;;
22679;SDS011;11507;44.858;10.374;2022-07-10T11:31:29;2.83;;;1.30;;
22679;SDS011;11507;44.858;10.374;2022-07-10T11:33:59;2.40;;;0.95;;
22679;SDS011;11507;44.858;10.374;2022-07-10T11:36:27;2.38;;;1.13;;
22679;SDS011;11507;44.858;10.374;2022-07-10T11:39:03;3.70;;;1.35;;
22679;SDS011;11507;44.858;10.374;2022-07-10T11:41:30;2.28;;;1.20;;
22679;SDS011;11507;44.858;10.374;2022-07-10T11:44:00;4.82;;;1.45;;
22679;SDS011;11507;44.858;10.374;2022-07-10T11:46:29;2.65;;;1.40;;
22679;SDS011;11507;44.858;10.374;2022-07-10T11:48:57;3.45;;;1.10;;
22679;SDS011;11507;44.858;10.374;2022-07-10T11:51:24;3.40;;;1.40;;
22679;SDS011;11507;44.858;10.374;2022-07-10T11:54:04;3.38;;;1.10;;
22679;SDS011;11507;44.858;10.374;2022-07-10T11:56:35;2.65;;;1.20;;
22679;SDS011;11507;44.858;10.374;2022-07-10T11:59:10;2.97;;;1.17;;
22679;SDS011;11507;44.858;10.374;2022-07-10T12:01:43;2.70;;;1.05;;
22679;SDS011;11507;44.858;10.374;2022-07-10T12:04:12;2.20;;;1.10;;
22679;SDS011;11507;44.858;10.374;2022-07-10T12:06:41;2.40;;;1.10;;
22679;SDS011;11507;44.858;10.374;2022-07-10T12:09:14;2.78;;;1.17;;
22679;SDS011;11507;44.858;10.374;2022-07-10T12:14:31;1.92;;;0.93;;
22679;SDS011;11507;44.858;10.374;2022-07-10T12:16:58;2.97;;;1.20;;
22679;SDS011;11507;44.858;10.374;2022-07-10T12:19:25;3.25;;;1.00;;
22679;SDS011;11507;44.858;10.374;2022-07-10T12:21:58;2.35;;;1.20;;
22679;SDS011;11507;44.858;10.374;2022-07-10T12:24:25;2.75;;;1.17;;
22679;SDS011;11507;44.858;10.374;2022-07-10T12:26:52;3.13;;;1.27;;
22679;SDS011;11507;44.858;10.374;2022-07-10T12:29:19;2.00;;;0.98;;
22679;SDS011;11507;44.858;10.374;2022-07-10T12:31:56;2.83;;;1.20;;
22679;SDS011;11507;44.858;10.374;2022-07-10T12:34:37;4.20;;;1.40;;
22679;SDS011;11507;44.858;10.374;2022-07-10T12:37:13;2.78;;;1.10;;
22679;SDS011;11507;44.858;10.374;2022-07-10T12:39:48;2.20;;;1.15;;
22679;SDS011;11507;44.858;10.374;2022-07-10T12:42:27;2.72;;;1.05;;
22679;SDS011;11507;44.858;10.374;2022-07-10T12:45:09;2.92;;;1.20;;
22679;SDS011;11507;44.858;10.374;2022-07-10T12:47:43;3.92;;;1.10;;
22679;SDS011;11507;44.858;10.374;2022-07-10T12:50:12;2.30;;;1.20;;
22679;SDS011;11507;44.858;10.374;2022-07-10T12:52:39;2.83;;;1.10;;
22679;SDS011;11507;44.858;10.374;2022-07-10T12:58:06;2.75;;;1.10;;
22679;SDS011;11507;44.858;10.374;2022-07-10T13:00:32;2.22;;;1.30;;
22679;SDS011;11507;44.858;10.374;2022-07-10T13:03:00;2.75;;;1.23;;
22679;SDS011;11507;44.858;10.374;2022-07-10T13:05:37;4.38;;;1.13;;
22679;SDS011;11507;44.858;10.374;2022-07-10T13:10:39;4.60;;;1.05;;
22679;SDS011;11507;44.858;10.374;2022-07-10T13:13:06;3.75;;;1.20;;
22679;SDS011;11507;44.858;10.374;2022-07-10T13:15:32;3.58;;;1.20;;
22679;SDS011;11507;44.858;10.374;2022-07-10T13:18:06;3.45;;;1.13;;
22679;SDS011;11507;44.858;10.374;2022-07-10T13:20:33;2.85;;;1.30;;
22679;SDS011;11507;44.858;10.374;2022-07-10T13:22:59;3.78;;;1.17;;
22679;SDS011;11507;44.858;10.374;2022-07-10T13:25:25;2.08;;;1.00;;
22679;SDS011;11507;44.858;10.374;2022-07-10T13:27:50;2.03;;;1.00;;
22679;SDS011;11507;44.858;10.374;2022-07-10T13:30:17;4.05;;;1.20;;
22679;SDS011;11507;44.858;10.374;2022-07-10T13:32:43;2.58;;;1.30;;
22679;SDS011;11507;44.858;10.374;2022-07-10T13:35:09;3.38;;;1.20;;
22679;SDS011;11507;44.858;10.374;2022-07-10T13:37:35;1.67;;;0.98;;
22679;SDS011;11507;44.858;10.374;2022-07-10T13:40:01;2.40;;;1.00;;
22679;SDS011;11507;44.858;10.374;2022-07-10T13:42:27;3.08;;;1.10;;
22679;SDS011;11507;44.858;10.374;2022-07-10T13:44:53;2.45;;;1.02;;
22679;SDS011;11507;44.858;10.374;2022-07-10T13:47:20;3.03;;;1.10;;
22679;SDS011;11507;44.858;10.374;2022-07-10T13:49:46;2.60;;;1.30;;
22679;SDS011;11507;44.858;10.374;2022-07-10T13:52:13;3.15;;;1.30;;
22679;SDS011;11507;44.858;10.374;2022-07-10T13:54:39;3.22;;;1.27;;
22679;SDS011;11507;44.858;10.374;2022-07-10T13:57:05;4.15;;;1.20;;
22679;SDS011;11507;44.858;10.374;2022-07-10T13:59:31;5.13;;;1.10;;
22679;SDS011;11507;44.858;10.374;2022-07-10T14:01:57;3.58;;;1.25;;
22679;SDS011;11507;44.858;10.374;2022-07-10T14:04:23;2.72;;;1.10;;
22679;SDS011;11507;44.858;10.374;2022-07-10T14:06:48;2.38;;;1.23;;
22679;SDS011;11507;44.858;10.374;2022-07-10T14:09:14;2.67;;;1.33;;
22679;SDS011;11507;44.858;10.374;2022-07-10T14:11:40;3.15;;;1.20;;
22679;SDS011;11507;44.858;10.374;2022-07-10T14:14:09;3.35;;;1.17;;
22679;SDS011;11507;44.858;10.374;2022-07-10T14:16:36;2.40;;;1.20;;
22679;SDS011;11507;44.858;10.374;2022-07-10T14:19:02;2.65;;;1.20;;
22679;SDS011;11507;44.858;10.374;2022-07-10T14:21:28;4.82;;;1.23;;
22679;SDS011;11507;44.858;10.374;2022-07-10T14:23:54;1.98;;;1.02;;
22679;SDS011;11507;44.858;10.374;2022-07-10T14:26:21;2.45;;;1.02;;
22679;SDS011;11507;44.858;10.374;2022-07-10T14:28:48;3.25;;;1.20;;
22679;SDS011;11507;44.858;10.374;2022-07-10T14:31:14;2.72;;;1.20;;
22679;SDS011;11507;44.858;10.374;2022-07-10T14:33:40;4.10;;;1.20;;
22679;SDS011;11507;44.858;10.374;2022-07-10T14:36:06;3.28;;;1.25;;
22679;SDS011;11507;44.858;10.374;2022-07-10T14:38:33;1.92;;;1.20;;
22679;SDS011;11507;44.858;10.374;2022-07-10T14:40:59;2.45;;;1.20;;
22679;SDS011;11507;44.858;10.374;2022-07-10T14:43:25;3.65;;;1.10;;
22679;SDS011;11507;44.858;10.374;2022-07-10T14:45:52;2.50;;;0.90;;
22679;SDS011;11507;44.858;10.374;2022-07-10T14:48:33;3.90;;;1.52;;
22679;SDS011;11507;44.858;10.374;2022-07-10T14:51:01;3.58;;;1.20;;
22679;SDS011;11507;44.858;10.374;2022-07-10T14:53:29;3.17;;;1.23;;
22679;SDS011;11507;44.858;10.374;2022-07-10T14:56:00;2.45;;;1.33;;
22679;SDS011;11507;44.858;10.374;2022-07-10T14:58:31;3.42;;;1.40;;
22679;SDS011;11507;44.858;10.374;2022-07-10T15:00:58;4.00;;;1.25;;
22679;SDS011;11507;44.858;10.374;2022-07-10T15:03:25;3.42;;;1.10;;
22679;SDS011;11507;44.858;10.374;2022-07-10T15:05:53;1.67;;;1.00;;
22679;SDS011;11507;44.858;10.374;2022-07-10T15:08:19;2.10;;;1.10;;
22679;SDS011;11507;44.858;10.374;2022-07-10T15:10:46;2.80;;;1.20;;
22679;SDS011;11507;44.858;10.374;2022-07-10T15:13:13;1.67;;;1.08;;
22679;SDS011;11507;44.858;10.374;2022-07-10T15:15:39;4.88;;;1.48;;
22679;SDS011;11507;44.858;10.374;2022-07-10T15:18:06;2.17;;;1.30;;
22679;SDS011;11507;44.858;10.374;2022-07-10T15:20:33;4.05;;;1.30;;
22679;SDS011;11507;44.858;10.374;2022-07-10T15:23:00;2.28;;;1.10;;
22679;SDS011;11507;44.858;10.374;2022-07-10T15:25:26;2.55;;;1.20;;
22679;SDS011;11507;44.858;10.374;2022-07-10T15:27:53;4.03;;;1.40;;
22679;SDS011;11507;44.858;10.374;2022-07-10T15:30:20;1.67;;;0.93;;
22679;SDS011;11507;44.858;10.374;2022-07-10T15:32:45;2.22;;;1.10;;
22679;SDS011;11507;44.858;10.374;2022-07-10T15:35:12;2.38;;;1.23;;
22679;SDS011;11507;44.858;10.374;2022-07-10T15:37:38;2.33;;;1.10;;
22679;SDS011;11507;44.858;10.374;2022-07-10T15:40:04;4.03;;;1.10;;